createdAt,value
2022-08-31T00:03:39.260Z,100.00
2022-08-31T00:08:43.384Z,100.00
2022-08-31T00:13:49.054Z,100.00
2022-08-31T00:18:53.693Z,100.00
2022-08-31T00:23:57.708Z,100.00
2022-08-31T00:29:03.235Z,100.00
2022-08-31T00:34:07.600Z,100.00
2022-08-31T00:39:11.630Z,100.00
2022-08-31T00:44:17.879Z,100.00
2022-08-31T00:49:24.630Z,100.00
2022-08-31T00:54:35.794Z,100.00
2022-08-31T00:59:45.698Z,100.00
2022-08-31T01:04:49.526Z,100.00
2022-08-31T01:09:56.168Z,100.00
2022-08-31T01:15:06.394Z,100.00
2022-08-31T01:20:17.562Z,100.00
2022-08-31T01:25:23.034Z,100.00
2022-08-31T01:30:27.850Z,100.00
2022-08-31T01:35:32.126Z,100.00
2022-08-31T01:40:45.938Z,100.00
2022-08-31T01:45:50.180Z,100.00
2022-08-31T01:50:54.118Z,100.00
2022-08-31T01:55:59.428Z,100.00
2022-08-31T02:01:03.992Z,100.00
2022-08-31T02:06:28.083Z,100.00
2022-08-31T02:11:33.537Z,100.00
2022-08-31T02:16:37.899Z,100.00
2022-08-31T02:21:43.080Z,100.00
2022-08-31T02:26:51.757Z,100.00
2022-08-31T02:31:58.655Z,100.00
2022-08-31T02:37:02.514Z,100.00
2022-08-31T02:42:08.293Z,100.00
2022-08-31T02:47:12.372Z,100.00
2022-08-31T02:52:20.781Z,100.00
2022-08-31T02:57:26.066Z,100.00
2022-08-31T03:02:32.161Z,100.00
2022-08-31T03:07:36.923Z,100.00
2022-08-31T03:12:42.386Z,100.00
2022-08-31T03:17:46.356Z,100.00
2022-08-31T03:22:50.783Z,100.00
2022-08-31T03:27:58.114Z,100.00
2022-08-31T03:33:03.409Z,100.00
2022-08-31T03:38:09.308Z,100.00
2022-08-31T03:43:16.067Z,100.00
2022-08-31T03:48:20.531Z,100.00
2022-08-31T03:53:24.713Z,100.00
2022-08-31T03:58:33.063Z,100.00
2022-08-31T04:03:37.708Z,100.00
2022-08-31T04:09:13.936Z,100.00
2022-08-31T04:14:39.291Z,100.00
2022-08-31T04:20:02.283Z,100.00
2022-08-31T04:25:26.528Z,100.00
2022-08-31T04:30:31.859Z,100.00
2022-08-31T04:35:36.591Z,100.00
2022-08-31T04:40:41.482Z,100.00
2022-08-31T04:45:47.461Z,100.00
2022-08-31T04:50:51.766Z,100.00
2022-08-31T04:55:55.737Z,100.00
2022-08-31T05:01:01.086Z,100.00
2022-08-31T05:06:25.408Z,100.00
2022-08-31T05:11:31.654Z,100.00
2022-08-31T05:16:38.653Z,100.00
2022-08-31T05:21:44.262Z,100.00
2022-08-31T05:26:50.374Z,100.00
2022-08-31T05:31:56.881Z,100.00
2022-08-31T05:37:00.821Z,100.00
2022-08-31T05:42:07.854Z,100.00
2022-08-31T05:47:13.370Z,100.00
2022-08-31T05:52:17.399Z,100.00
2022-08-31T05:57:25.860Z,100.00
2022-08-31T06:02:34.106Z,100.00
2022-08-31T06:07:38.425Z,100.00
2022-08-31T06:12:47.468Z,100.00
2022-08-31T06:17:55.672Z,100.00
2022-08-31T06:23:02.184Z,100.00
2022-08-31T06:28:19.242Z,100.00
2022-08-31T06:33:27.267Z,100.00
2022-08-31T06:38:49.898Z,100.00
2022-08-31T06:44:21.421Z,100.00
2022-08-31T06:49:53.358Z,100.00
2022-08-31T06:55:00.509Z,100.00
2022-08-31T07:00:24.482Z,100.00
2022-08-31T07:06:12.237Z,100.00
2022-08-31T07:11:24.182Z,100.00
2022-08-31T07:16:29.257Z,100.00
2022-08-31T07:21:48.341Z,100.00
2022-08-31T07:26:58.879Z,100.00
2022-08-31T07:32:17.601Z,100.00
2022-08-31T07:37:47.088Z,100.00
2022-08-31T07:42:51.475Z,100.00
2022-08-31T07:47:56.464Z,100.00
2022-08-31T07:53:08.681Z,100.00
2022-08-31T07:58:30.265Z,100.00
2022-08-31T08:03:35.367Z,100.00
2022-08-31T08:09:21.982Z,100.00
2022-08-31T08:14:54.908Z,100.00
2022-08-31T08:20:34.435Z,100.00
2022-08-31T08:25:46.331Z,100.00
2022-08-31T08:31:01.671Z,100.00
2022-08-31T08:36:11.028Z,100.00
2022-08-31T08:41:21.182Z,100.00
2022-08-31T08:46:35.653Z,100.00
2022-08-31T08:51:40.889Z,100.00
2022-08-31T08:56:49.360Z,100.00
2022-08-31T09:02:02.477Z,100.00
2022-08-31T09:07:26.214Z,100.00
2022-08-31T09:12:44.927Z,100.00
2022-08-31T09:18:02.275Z,100.00
2022-08-31T09:23:08.625Z,100.00
2022-08-31T09:28:19.648Z,100.00
2022-08-31T09:33:28.491Z,100.00
2022-08-31T09:38:39.602Z,100.00
2022-08-31T09:43:46.138Z,100.00
2022-08-31T09:48:53.282Z,100.00
2022-08-31T09:54:27.210Z,100.00
2022-08-31T09:59:38.424Z,100.00
2022-08-31T10:04:52.429Z,100.00
2022-08-31T10:10:00.718Z,100.00
2022-08-31T10:15:15.805Z,100.00
2022-08-31T10:20:35.227Z,100.00
2022-08-31T10:25:46.805Z,100.00
2022-08-31T10:30:59.797Z,97.60
2022-08-31T10:36:08.128Z,94.15
2022-08-31T10:41:22.654Z,85.00
2022-08-31T10:46:29.302Z,77.23
2022-08-31T10:51:54.000Z,76.04
2022-08-31T10:57:33.490Z,69.78
2022-08-31T11:02:57.226Z,70.48
2022-08-31T11:08:12.346Z,74.47
2022-08-31T11:13:53.982Z,75.33
2022-08-31T11:19:39.282Z,84.47
2022-08-31T11:25:15.476Z,84.88
2022-08-31T11:30:27.055Z,72.60
2022-08-31T11:36:06.097Z,74.79
2022-08-31T11:41:12.180Z,59.20
2022-08-31T11:47:07.260Z,61.22
2022-08-31T11:52:32.842Z,61.61
2022-08-31T11:58:11.690Z,59.67
2022-08-31T12:03:37.097Z,46.90
2022-08-31T12:08:52.425Z,49.75
2022-08-31T12:14:02.300Z,52.19
2022-08-31T12:19:51.177Z,51.43
2022-08-31T12:25:11.674Z,40.74
2022-08-31T12:30:21.200Z,42.16
2022-08-31T12:35:26.186Z,45.58
2022-08-31T12:40:33.197Z,44.82
2022-08-31T12:46:18.938Z,44.54
2022-08-31T12:51:31.134Z,42.70
2022-08-31T12:56:44.498Z,40.88
2022-08-31T13:01:51.300Z,41.00
2022-08-31T13:06:55.335Z,43.89
2022-08-31T13:12:02.315Z,43.99
2022-08-31T13:17:12.205Z,39.76
2022-08-31T13:22:25.673Z,37.07
2022-08-31T13:27:31.128Z,34.68
2022-08-31T13:32:35.915Z,36.33
2022-08-31T13:37:42.001Z,35.06
2022-08-31T13:42:57.189Z,31.47
2022-08-31T13:48:03.113Z,33.69
2022-08-31T13:53:26.389Z,35.51
2022-08-31T13:58:33.475Z,36.68
2022-08-31T14:03:45.218Z,38.82
2022-08-31T14:08:52.288Z,41.56
2022-08-31T14:14:06.084Z,40.51
2022-08-31T14:19:11.238Z,40.76
2022-08-31T14:24:14.757Z,40.55
2022-08-31T14:29:19.909Z,43.04
2022-08-31T14:34:27.079Z,44.25
2022-08-31T14:39:33.634Z,44.14
2022-08-31T14:44:41.965Z,46.35
2022-08-31T14:49:46.139Z,46.01
2022-08-31T14:54:49.872Z,43.95
2022-08-31T14:59:58.195Z,43.95
2022-08-31T15:05:04.766Z,43.64
2022-08-31T15:10:12.983Z,44.43
2022-08-31T15:15:20.898Z,41.56
2022-08-31T15:20:25.016Z,41.61
2022-08-31T15:25:28.918Z,41.40
2022-08-31T15:30:34.022Z,40.58
2022-08-31T15:35:41.883Z,41.75
2022-08-31T15:40:45.636Z,43.07
2022-08-31T15:45:50.757Z,43.62
2022-08-31T15:51:00.467Z,45.32
2022-08-31T15:56:06.751Z,44.69
2022-08-31T16:01:16.376Z,44.91
2022-08-31T16:06:22.744Z,45.63
2022-08-31T16:11:28.790Z,46.62
2022-08-31T16:16:36.900Z,45.36
2022-08-31T16:21:45.267Z,45.63
2022-08-31T16:26:51.370Z,45.97
2022-08-31T16:31:57.594Z,46.24
2022-08-31T16:37:07.383Z,45.94
2022-08-31T16:42:13.558Z,46.99
2022-08-31T16:47:19.673Z,47.24
2022-08-31T16:52:26.475Z,48.25
2022-08-31T16:57:32.698Z,47.71
2022-08-31T17:02:37.907Z,49.41
2022-08-31T17:07:42.860Z,48.03
2022-08-31T17:12:48.375Z,48.53
2022-08-31T17:17:53.289Z,50.53
2022-08-31T17:22:56.977Z,51.45
2022-08-31T17:28:05.538Z,50.96
2022-08-31T17:33:14.222Z,49.88
2022-08-31T17:38:18.591Z,51.76
2022-08-31T17:43:22.598Z,53.13
2022-08-31T17:48:30.442Z,53.71
2022-08-31T17:53:34.394Z,54.87
2022-08-31T17:58:38.306Z,55.53
2022-08-31T18:03:43.449Z,54.82
2022-08-31T18:08:47.247Z,55.66
2022-08-31T18:13:53.593Z,57.20
2022-08-31T18:18:58.915Z,57.95
2022-08-31T18:24:02.930Z,57.80
2022-08-31T18:29:08.754Z,58.85
2022-08-31T18:34:18.931Z,59.06
2022-08-31T18:39:48.066Z,60.10
2022-08-31T18:45:09.312Z,60.52
2022-08-31T18:50:16.150Z,63.54
2022-08-31T18:55:20.261Z,64.83
2022-08-31T19:00:24.194Z,68.33
2022-08-31T19:05:31.635Z,68.69
2022-08-31T19:10:35.933Z,68.00
2022-08-31T19:15:40.644Z,70.30
2022-08-31T19:20:45.945Z,69.37
2022-08-31T19:25:49.853Z,73.22
2022-08-31T19:30:53.587Z,77.64
2022-08-31T19:36:03.484Z,76.56
2022-08-31T19:41:15.916Z,79.45
2022-08-31T19:46:24.221Z,80.33
2022-08-31T19:51:31.434Z,82.83
2022-08-31T19:56:37.576Z,84.50
2022-08-31T20:01:42.054Z,82.95
2022-08-31T20:06:49.256Z,82.07
2022-08-31T20:12:00.019Z,83.02
2022-08-31T20:17:05.263Z,79.86
2022-08-31T20:22:10.619Z,83.64
2022-08-31T20:27:18.339Z,87.06
2022-08-31T20:32:23.619Z,89.79
2022-08-31T20:37:28.803Z,90.27
2022-08-31T20:42:32.509Z,90.27
2022-08-31T20:47:53.334Z,93.46
2022-08-31T20:52:59.253Z,95.55
2022-08-31T20:58:03.281Z,95.81
2022-08-31T21:03:07.248Z,94.21
2022-08-31T21:08:13.991Z,87.73
2022-08-31T21:13:18.363Z,90.50
2022-08-31T21:18:23.290Z,90.67
2022-08-31T21:23:29.431Z,92.04
2022-08-31T21:28:34.106Z,92.52
2022-08-31T21:33:37.913Z,95.78
2022-08-31T21:38:44.651Z,93.68
2022-08-31T21:43:48.904Z,96.51
2022-08-31T21:48:54.253Z,91.56
2022-08-31T21:54:01.478Z,92.28
2022-08-31T21:59:06.284Z,93.16
2022-08-31T22:04:10.989Z,93.95
2022-08-31T22:09:17.738Z,92.19
2022-08-31T22:14:26.257Z,93.34
2022-08-31T22:19:33.981Z,96.40
2022-08-31T22:24:39.565Z,95.12
2022-08-31T22:29:44.225Z,93.22
2022-08-31T22:34:48.182Z,92.54
2022-08-31T22:39:55.345Z,90.97
2022-08-31T22:44:58.984Z,90.03
2022-08-31T22:50:02.680Z,88.91
2022-08-31T22:55:10.246Z,95.49
2022-08-31T23:00:14.628Z,100.00
2022-08-31T23:05:20.687Z,100.00
2022-08-31T23:10:27.072Z,100.00
2022-08-31T23:15:31.301Z,100.00
2022-08-31T23:20:35.075Z,100.00
2022-08-31T23:25:41.009Z,100.00
2022-08-31T23:30:44.964Z,100.00
2022-08-31T23:35:48.868Z,98.50
2022-08-31T23:41:10.705Z,97.51
2022-08-31T23:46:19.229Z,97.11
2022-08-31T23:51:23.353Z,96.02
2022-08-31T23:56:32.263Z,96.80
